createdAt,value
2018-06-13T00:01:24.920Z,1.17
2018-06-13T00:03:53.161Z,1.93
2018-06-13T00:06:22.202Z,1.43
2018-06-13T00:08:49.910Z,1.20
2018-06-13T00:11:17.902Z,1.07
2018-06-13T00:13:45.550Z,1.17
2018-06-13T00:16:13.206Z,1.60
2018-06-13T00:18:40.909Z,2.10
2018-06-13T00:21:12.318Z,1.37
2018-06-13T00:23:40.355Z,1.53
2018-06-13T00:26:08.037Z,2.00
2018-06-13T00:28:36.866Z,1.90
2018-06-13T00:31:04.663Z,1.77
2018-06-13T00:33:33.206Z,1.43
2018-06-13T00:36:00.866Z,1.27
2018-06-13T00:38:29.609Z,1.80
2018-06-13T00:40:57.279Z,1.97
2018-06-13T00:43:25.668Z,1.57
2018-06-13T00:45:53.618Z,1.60
2018-06-13T00:48:21.268Z,1.50
2018-06-13T00:50:49.294Z,1.40
2018-06-13T00:53:16.968Z,1.40
2018-06-13T00:55:55.908Z,1.53
2018-06-13T00:58:24.080Z,1.33
2018-06-13T01:00:52.118Z,1.53
2018-06-13T01:03:20.347Z,1.43
2018-06-13T01:05:48.122Z,1.30
2018-06-13T01:08:15.807Z,1.13
2018-06-13T01:10:43.457Z,0.80
2018-06-13T01:13:11.106Z,1.20
2018-06-13T01:15:38.783Z,1.17
2018-06-13T01:18:06.643Z,1.73
2018-06-13T01:20:34.405Z,1.00
2018-06-13T01:23:02.088Z,2.70
2018-06-13T01:25:29.760Z,1.33
2018-06-13T01:27:57.421Z,1.57
2018-06-13T01:30:25.092Z,1.97
2018-06-13T01:32:52.736Z,1.90
2018-06-13T01:35:20.762Z,1.10
2018-06-13T01:37:48.669Z,1.00
2018-06-13T01:40:16.289Z,1.03
2018-06-13T01:42:43.851Z,1.67
2018-06-13T01:45:11.556Z,0.97
2018-06-13T01:47:39.221Z,1.40
2018-06-13T01:50:06.887Z,0.97
2018-06-13T01:52:34.829Z,2.30
2018-06-13T01:55:03.149Z,1.03
2018-06-13T01:57:30.891Z,1.50
2018-06-13T01:59:58.923Z,1.20
2018-06-13T02:02:27.017Z,1.37
2018-06-13T02:04:55.112Z,0.77
2018-06-13T02:07:22.794Z,0.80
2018-06-13T02:09:50.979Z,1.00
2018-06-13T02:12:19.278Z,0.87
2018-06-13T02:14:46.975Z,0.80
2018-06-13T02:17:14.939Z,1.47
2018-06-13T02:19:43.373Z,0.80
2018-06-13T02:22:11.076Z,1.33
2018-06-13T02:24:39.274Z,2.03
2018-06-13T02:27:07.268Z,1.00
2018-06-13T02:29:34.957Z,1.20
2018-06-13T02:32:02.702Z,1.53
2018-06-13T02:34:30.353Z,1.37
2018-06-13T02:36:58.291Z,1.30
2018-06-13T02:39:25.961Z,1.07
2018-06-13T02:41:53.645Z,1.10
2018-06-13T02:44:21.378Z,0.87
2018-06-13T02:46:49.113Z,1.00
2018-06-13T02:49:16.815Z,1.13
2018-06-13T02:51:44.854Z,1.10
2018-06-13T02:54:13.184Z,1.20
2018-06-13T02:56:40.936Z,1.40
2018-06-13T02:59:08.614Z,1.43
2018-06-13T03:01:37.434Z,0.90
2018-06-13T03:04:06.276Z,2.80
2018-06-13T03:06:34.708Z,1.43
2018-06-13T03:09:03.134Z,1.63
2018-06-13T03:11:31.163Z,1.10
2018-06-13T03:13:59.815Z,1.30
2018-06-13T03:16:27.655Z,1.40
2018-06-13T03:18:55.686Z,1.37
2018-06-13T03:21:23.689Z,1.10
2018-06-13T03:23:51.951Z,1.43
2018-06-13T03:26:19.745Z,1.10
2018-06-13T03:28:47.704Z,1.17
2018-06-13T03:41:00.384Z,1.27
2018-06-13T03:43:28.792Z,1.57
2018-06-13T03:45:56.710Z,1.10
2018-06-13T03:48:24.382Z,1.47
2018-06-13T03:50:52.324Z,1.20
2018-06-13T03:53:20.155Z,1.00
2018-06-13T03:55:47.836Z,1.27
2018-06-13T03:58:15.846Z,1.33
2018-06-13T04:00:44.336Z,1.53
2018-06-13T04:03:12.020Z,1.23
2018-06-13T04:05:39.734Z,1.57
2018-06-13T04:08:07.981Z,1.20
2018-06-13T04:10:36.098Z,1.20
2018-06-13T04:13:03.746Z,1.73
2018-06-13T04:15:31.442Z,1.40
2018-06-13T04:18:00.418Z,2.10
2018-06-13T04:20:29.016Z,1.20
2018-06-13T04:22:57.378Z,1.17
2018-06-13T04:25:25.560Z,1.13
2018-06-13T04:27:53.242Z,1.70
2018-06-13T04:30:20.954Z,2.07
2018-06-13T04:32:48.634Z,1.27
2018-06-13T04:35:16.160Z,1.40
2018-06-13T04:37:44.918Z,2.00
2018-06-13T04:40:12.622Z,1.33
2018-06-13T04:42:40.638Z,1.30
2018-06-13T04:45:08.306Z,2.37
2018-06-13T04:47:36.011Z,1.10
2018-06-13T04:50:03.720Z,1.33
2018-06-13T04:52:31.608Z,1.10
2018-06-13T04:54:59.254Z,1.83
2018-06-13T04:57:26.951Z,1.77
2018-06-13T04:59:54.734Z,1.33
2018-06-13T05:02:22.726Z,2.10
2018-06-13T05:04:52.680Z,2.50
2018-06-13T05:07:20.800Z,2.03
2018-06-13T05:19:29.122Z,1.20
2018-06-13T05:21:56.769Z,1.97
2018-06-13T05:24:24.450Z,2.37
2018-06-13T05:26:52.113Z,1.90
2018-06-13T05:29:19.777Z,1.70
2018-06-13T05:31:47.706Z,1.40
2018-06-13T05:34:15.632Z,1.40
2018-06-13T05:36:43.858Z,2.47
2018-06-13T05:39:11.807Z,1.20
2018-06-13T05:41:39.494Z,2.07
2018-06-13T05:44:07.196Z,1.37
2018-06-13T05:46:34.848Z,1.60
2018-06-13T05:49:03.151Z,1.43
2018-06-13T05:51:30.888Z,1.43
2018-06-13T05:53:58.558Z,2.33
2018-06-13T05:56:26.242Z,1.53
2018-06-13T05:58:53.880Z,1.47
2018-06-13T06:01:22.273Z,2.00
2018-06-13T06:03:50.586Z,1.17
2018-06-13T06:06:18.894Z,2.27
2018-06-13T06:08:46.556Z,2.60
2018-06-13T06:11:14.224Z,2.37
2018-06-13T06:13:41.861Z,3.37
2018-06-13T06:16:09.616Z,3.90
2018-06-13T06:18:37.568Z,4.30
2018-06-13T06:21:05.224Z,4.17
2018-06-13T06:23:32.878Z,4.70
2018-06-13T06:26:00.552Z,4.43
2018-06-13T06:28:28.219Z,5.50
2018-06-13T06:40:40.922Z,3.40
2018-06-13T06:43:08.581Z,5.10
2018-06-13T06:45:36.475Z,4.00
2018-06-13T06:48:06.598Z,4.90
2018-06-13T06:50:34.140Z,4.70
2018-06-13T06:53:01.795Z,3.97
2018-06-13T06:55:29.506Z,4.90
2018-06-13T06:57:57.129Z,2.47
2018-06-13T07:00:24.785Z,4.07
2018-06-13T07:02:52.430Z,3.60
2018-06-13T07:05:20.344Z,2.83
2018-06-13T07:07:49.095Z,4.67
2018-06-13T07:10:16.764Z,5.47
2018-06-13T07:12:44.431Z,3.00
2018-06-13T07:15:12.384Z,3.20
2018-06-13T07:17:40.036Z,5.20
2018-06-13T07:20:09.135Z,5.03
2018-06-13T07:22:36.788Z,6.43
2018-06-13T07:25:04.767Z,3.00
2018-06-13T07:27:32.393Z,3.37
2018-06-13T07:30:00.058Z,3.33
2018-06-13T07:32:27.732Z,4.40
2018-06-13T07:34:55.737Z,2.67
2018-06-13T07:37:23.679Z,3.17
2018-06-13T07:39:52.101Z,3.20
2018-06-13T07:42:19.787Z,3.73
2018-06-13T07:44:48.011Z,3.13
2018-06-13T07:47:15.691Z,2.73
2018-06-13T07:49:43.670Z,2.23
2018-06-13T07:52:11.661Z,3.67
2018-06-13T07:54:40.027Z,2.50
2018-06-13T07:57:07.709Z,4.23
2018-06-13T07:59:35.345Z,5.23
2018-06-13T08:02:03.007Z,2.87
2018-06-13T08:04:31.255Z,3.97
2018-06-13T08:06:58.921Z,3.60
2018-06-13T08:09:26.576Z,3.60
2018-06-13T08:11:54.336Z,2.13
2018-06-13T08:14:22.001Z,2.70
2018-06-13T08:16:49.729Z,2.67
2018-06-13T08:19:17.365Z,4.30
2018-06-13T08:21:44.995Z,3.07
2018-06-13T08:24:12.637Z,2.93
2018-06-13T08:26:40.271Z,5.47
2018-06-13T08:29:08.907Z,3.07
2018-06-13T08:31:36.554Z,3.20
2018-06-13T08:34:04.201Z,3.00
2018-06-13T08:36:32.501Z,2.30
2018-06-13T08:39:00.148Z,3.47
2018-06-13T08:41:28.081Z,3.27
2018-06-13T08:43:55.725Z,3.20
2018-06-13T08:46:23.387Z,5.27
2018-06-13T08:48:51.684Z,5.23
2018-06-13T08:51:19.719Z,3.87
2018-06-13T08:53:48.734Z,5.37
2018-06-13T08:56:16.407Z,3.07
2018-06-13T08:58:44.359Z,5.20
2018-06-13T09:10:57.039Z,4.57
2018-06-13T09:13:25.040Z,7.30
2018-06-13T09:15:52.991Z,3.17
2018-06-13T09:18:20.625Z,5.53
2018-06-13T09:20:48.655Z,4.67
2018-06-13T09:23:18.005Z,2.10
2018-06-13T09:25:45.666Z,3.70
2018-06-13T09:28:13.325Z,2.97
2018-06-13T09:30:41.016Z,3.43
2018-06-13T09:33:08.687Z,1.87
2018-06-13T09:35:36.451Z,2.23
2018-06-13T09:38:04.177Z,2.93
2018-06-13T09:40:31.879Z,2.20
2018-06-13T09:42:59.881Z,2.10
2018-06-13T09:45:27.543Z,2.43
2018-06-13T09:47:55.245Z,2.57
2018-06-13T09:50:22.887Z,2.50
2018-06-13T10:02:37.064Z,4.13
2018-06-13T10:05:05.459Z,3.57
2018-06-13T10:07:34.053Z,1.77
2018-06-13T10:10:02.312Z,2.43
2018-06-13T10:12:29.995Z,3.30
2018-06-13T10:14:57.648Z,2.47
2018-06-13T10:17:25.692Z,2.93
2018-06-13T10:19:53.969Z,2.50
2018-06-13T10:22:21.893Z,2.87
2018-06-13T10:24:49.534Z,2.97
2018-06-13T10:27:22.875Z,1.83
2018-06-13T10:29:50.565Z,3.77
2018-06-13T10:32:18.251Z,1.77
2018-06-13T10:34:46.174Z,1.60
2018-06-13T10:37:13.868Z,2.00
2018-06-13T10:39:41.517Z,2.97
2018-06-13T10:42:09.155Z,3.60
2018-06-13T10:44:39.610Z,1.90
2018-06-13T10:47:07.301Z,1.97
2018-06-13T10:49:34.962Z,2.23
2018-06-13T10:52:02.726Z,2.03
2018-06-13T10:54:31.859Z,3.07
2018-06-13T11:06:44.673Z,4.77
2018-06-13T11:09:12.723Z,4.87
2018-06-13T11:11:40.442Z,5.80
2018-06-13T11:14:08.128Z,9.60
2018-06-13T11:16:35.895Z,9.17
2018-06-13T11:19:04.384Z,4.20
2018-06-13T11:21:32.361Z,4.97
2018-06-13T11:24:00.701Z,3.87
2018-06-13T11:26:29.377Z,3.90
2018-06-13T11:28:57.318Z,3.77
2018-06-13T11:31:24.998Z,5.83
2018-06-13T11:33:52.631Z,3.67
2018-06-13T11:36:20.683Z,5.80
2018-06-13T11:38:48.362Z,4.37
2018-06-13T11:41:16.053Z,4.43
2018-06-13T11:43:44.213Z,4.23
2018-06-13T11:46:12.234Z,4.53
2018-06-13T11:48:39.930Z,4.23
2018-06-13T11:51:07.612Z,3.23
2018-06-13T11:53:35.399Z,4.03
2018-06-13T11:56:03.190Z,3.97
2018-06-13T11:58:30.896Z,3.77
2018-06-13T12:00:58.539Z,5.80
2018-06-13T12:03:26.211Z,3.63
2018-06-13T12:05:54.484Z,4.37
2018-06-13T12:08:22.141Z,3.77
2018-06-13T12:10:51.035Z,3.87
2018-06-13T12:13:19.963Z,3.50
2018-06-13T12:15:47.874Z,3.47
2018-06-13T12:18:15.659Z,3.83
2018-06-13T12:20:43.196Z,3.67
2018-06-13T12:23:10.859Z,3.80
2018-06-13T12:25:38.953Z,4.03
2018-06-13T12:28:06.957Z,3.53
2018-06-13T12:30:34.624Z,3.93
2018-06-13T12:33:02.390Z,4.07
2018-06-13T12:35:30.823Z,4.10
2018-06-13T12:38:00.473Z,4.60
2018-06-13T12:40:28.121Z,4.60
2018-06-13T12:42:55.821Z,5.03
2018-06-13T12:45:23.467Z,4.33
2018-06-13T12:47:51.145Z,3.80
2018-06-13T12:50:18.822Z,4.27
2018-06-13T12:52:46.512Z,3.57
2018-06-13T12:55:15.001Z,3.43
2018-06-13T12:57:42.827Z,3.27
2018-06-13T13:00:11.164Z,3.27
2018-06-13T13:15:35.571Z,4.37
2018-06-13T13:18:03.254Z,2.90
2018-06-13T13:20:30.966Z,2.90
2018-06-13T13:23:00.007Z,3.20
2018-06-13T13:25:27.953Z,2.93
2018-06-13T13:27:56.318Z,3.20
2018-06-13T13:30:24.311Z,3.00
2018-06-13T13:32:52.391Z,3.20
2018-06-13T13:35:20.075Z,3.03
2018-06-13T13:37:48.069Z,2.73
2018-06-13T13:40:16.072Z,3.20
2018-06-13T13:42:43.725Z,3.00
2018-06-13T13:45:11.385Z,3.07
2018-06-13T13:47:40.183Z,2.63
2018-06-13T13:50:07.977Z,4.33
2018-06-13T13:52:35.951Z,3.40
2018-06-13T13:55:04.047Z,3.10
2018-06-13T13:57:31.765Z,3.47
2018-06-13T13:59:59.771Z,3.03
2018-06-13T14:02:27.964Z,3.00
2018-06-13T14:04:55.674Z,3.27
2018-06-13T14:07:23.328Z,3.67
2018-06-13T14:09:50.975Z,4.83
2018-06-13T14:12:18.519Z,3.60
2018-06-13T14:14:46.531Z,2.97
2018-06-13T14:17:14.173Z,2.73
2018-06-13T14:19:41.900Z,2.70
2018-06-13T14:22:09.984Z,2.77
2018-06-13T14:24:37.913Z,3.10
2018-06-13T14:27:06.049Z,3.47
2018-06-13T14:29:34.105Z,2.97
2018-06-13T14:32:01.652Z,2.80
2018-06-13T14:34:29.626Z,3.10
2018-06-13T14:36:57.340Z,2.70
2018-06-13T14:39:25.354Z,3.13
2018-06-13T14:41:53.046Z,2.90
2018-06-13T14:44:21.667Z,3.07
2018-06-13T14:46:49.360Z,2.90
2018-06-13T14:49:17.027Z,2.97
2018-06-13T14:51:49.707Z,3.03
2018-06-13T15:04:03.279Z,3.30
2018-06-13T15:06:31.265Z,2.77
2018-06-13T15:08:58.921Z,3.20
2018-06-13T15:11:26.874Z,2.90
2018-06-13T15:13:54.865Z,3.40
2018-06-13T15:16:22.819Z,2.93
2018-06-13T15:18:50.522Z,3.10
2018-06-13T15:21:18.275Z,2.80
2018-06-13T15:23:45.984Z,2.80
2018-06-13T15:26:13.787Z,3.60
2018-06-13T15:28:43.207Z,2.50
2018-06-13T15:31:10.886Z,3.10
2018-06-13T15:33:38.613Z,2.93
2018-06-13T15:36:06.308Z,3.23
2018-06-13T15:38:33.973Z,3.53
2018-06-13T15:41:03.740Z,2.90
2018-06-13T15:43:31.764Z,4.97
2018-06-13T15:45:59.991Z,3.13
2018-06-13T15:48:27.695Z,3.10
2018-06-13T15:50:55.370Z,3.27
2018-06-13T15:53:23.025Z,3.07
2018-06-13T15:55:50.806Z,3.47
2018-06-13T15:58:18.459Z,2.70
2018-06-13T16:00:46.175Z,2.90
2018-06-13T16:03:13.845Z,2.87
2018-06-13T16:05:41.741Z,3.40
2018-06-13T16:08:09.406Z,3.00
2018-06-13T16:10:37.781Z,3.63
2018-06-13T16:13:05.489Z,2.80
2018-06-13T16:15:33.317Z,3.20
2018-06-13T16:18:01.332Z,2.73
2018-06-13T16:20:29.017Z,3.10
2018-06-13T16:22:56.695Z,3.17
2018-06-13T16:25:24.411Z,3.33
2018-06-13T16:27:52.109Z,3.07
2018-06-13T16:30:19.811Z,3.60
2018-06-13T16:32:47.551Z,2.87
2018-06-13T16:45:00.316Z,3.13
2018-06-13T16:47:28.293Z,3.20
2018-06-13T16:59:41.260Z,3.47
2018-06-13T17:02:09.195Z,3.27
2018-06-13T17:04:36.907Z,3.50
2018-06-13T17:07:04.607Z,3.50
2018-06-13T17:09:32.647Z,3.20
2018-06-13T17:12:01.905Z,4.27
2018-06-13T17:14:30.307Z,3.00
2018-06-13T17:16:58.006Z,3.67
2018-06-13T17:19:25.976Z,3.00
2018-06-13T17:21:53.619Z,3.63
2018-06-13T17:24:21.299Z,3.30
2018-06-13T17:26:48.961Z,3.33
2018-06-13T17:29:17.067Z,3.07
2018-06-13T17:31:45.088Z,3.47
2018-06-13T17:34:12.760Z,3.67
2018-06-13T17:36:40.477Z,3.70
2018-06-13T17:39:09.659Z,3.33
2018-06-13T17:41:38.290Z,3.30
2018-06-13T17:44:06.691Z,3.50
2018-06-13T17:46:34.374Z,3.80
2018-06-13T17:49:02.446Z,3.50
2018-06-13T17:51:30.126Z,3.50
2018-06-13T17:53:57.831Z,3.40
2018-06-13T17:56:25.999Z,3.40
2018-06-13T17:58:53.658Z,3.80
2018-06-13T18:01:21.497Z,3.47
2018-06-13T18:03:49.511Z,3.60
2018-06-13T18:06:17.288Z,3.20
2018-06-13T18:08:45.242Z,3.50
2018-06-13T18:11:12.903Z,3.30
2018-06-13T18:13:40.583Z,4.43
2018-06-13T18:16:08.931Z,3.30
2018-06-13T18:18:36.690Z,3.47
2018-06-13T18:21:04.509Z,3.43
2018-06-13T18:23:32.192Z,3.20
2018-06-13T18:25:59.867Z,3.03
2018-06-13T18:28:27.899Z,3.70
2018-06-13T18:30:55.961Z,3.70
2018-06-13T18:33:23.866Z,3.50
2018-06-13T18:35:51.785Z,3.60
2018-06-13T18:38:20.292Z,3.70
2018-06-13T18:40:47.983Z,3.77
2018-06-13T18:43:16.421Z,3.87
2018-06-13T18:45:44.139Z,3.60
2018-06-13T18:48:11.900Z,3.50
2018-06-13T18:50:39.703Z,3.60
2018-06-13T18:53:07.574Z,3.50
2018-06-13T18:55:35.325Z,3.63
2018-06-13T18:58:03.032Z,3.23
2018-06-13T19:00:30.761Z,3.97
2018-06-13T19:02:58.446Z,3.50
2018-06-13T19:05:26.136Z,4.00
2018-06-13T19:07:54.573Z,4.27
2018-06-13T19:10:22.382Z,4.00
2018-06-13T19:12:50.384Z,3.50
2018-06-13T19:15:18.000Z,4.07
2018-06-13T19:17:45.664Z,3.50
2018-06-13T19:29:58.484Z,4.97
2018-06-13T19:32:26.662Z,5.27
2018-06-13T19:34:55.399Z,4.30
2018-06-13T19:37:23.534Z,5.17
2018-06-13T19:39:51.234Z,5.33
2018-06-13T19:42:19.096Z,4.87
2018-06-13T19:44:47.181Z,6.67
2018-06-13T19:47:20.402Z,5.00
2018-06-13T19:49:48.442Z,7.20
2018-06-13T19:52:16.191Z,7.00
2018-06-13T19:54:49.598Z,7.43
2018-06-13T19:57:17.691Z,6.80
2018-06-13T19:59:46.232Z,5.93
2018-06-13T20:02:13.952Z,6.43
2018-06-13T20:04:47.148Z,5.53
2018-06-13T20:07:14.967Z,5.17
2018-06-13T20:09:43.038Z,5.73
2018-06-13T20:12:53.526Z,6.27
2018-06-13T20:15:26.776Z,6.90
2018-06-13T20:18:00.300Z,7.23
2018-06-13T20:20:28.558Z,6.47
2018-06-13T20:22:57.132Z,5.27
2018-06-13T20:25:30.318Z,4.40
2018-06-13T20:37:50.870Z,6.30
2018-06-13T20:40:18.958Z,5.00
2018-06-13T20:42:47.182Z,5.73
2018-06-13T20:45:15.945Z,5.47
2018-06-13T20:47:43.757Z,5.90
2018-06-13T20:59:51.490Z,6.80
2018-06-13T21:02:20.136Z,6.27
2018-06-13T21:04:47.721Z,9.40
2018-06-13T21:07:16.028Z,6.33
2018-06-13T21:09:44.061Z,9.77
2018-06-13T21:12:12.891Z,8.60
2018-06-13T21:14:40.924Z,8.47
2018-06-13T21:17:08.520Z,6.17
2018-06-13T21:19:36.273Z,6.83
2018-06-13T21:22:04.058Z,5.23
2018-06-13T21:24:32.257Z,7.93
2018-06-13T21:27:00.272Z,7.20
2018-06-13T21:29:28.014Z,7.50
2018-06-13T21:31:55.702Z,5.10
2018-06-13T21:34:23.410Z,4.93
2018-06-13T21:36:51.325Z,5.57
2018-06-13T21:39:19.102Z,5.57
2018-06-13T21:41:46.771Z,4.17
2018-06-13T21:44:14.605Z,5.13
2018-06-13T21:46:42.326Z,5.57
2018-06-13T21:49:10.498Z,4.47
2018-06-13T21:51:38.444Z,4.93
2018-06-13T21:54:06.189Z,5.50
2018-06-13T21:56:33.931Z,5.77
2018-06-13T21:59:02.063Z,4.53
2018-06-13T22:01:29.778Z,4.63
2018-06-13T22:03:57.525Z,4.10
2018-06-13T22:06:25.639Z,4.50
2018-06-13T22:08:53.344Z,4.30
2018-06-13T22:11:21.052Z,5.20
2018-06-13T22:13:48.793Z,4.47
2018-06-13T22:16:17.047Z,4.47
2018-06-13T22:18:45.214Z,4.17
2018-06-13T22:21:13.050Z,3.83
2018-06-13T22:23:40.743Z,5.93
2018-06-13T22:26:10.494Z,4.20
2018-06-13T22:28:38.184Z,4.70
2018-06-13T22:31:05.902Z,5.27
2018-06-13T22:33:34.465Z,4.47
2018-06-13T22:36:02.167Z,3.70
2018-06-13T22:38:30.136Z,4.17
2018-06-13T22:40:58.395Z,4.33
2018-06-13T22:43:26.137Z,4.73
2018-06-13T22:45:54.080Z,4.40
2018-06-13T22:48:22.048Z,5.07
2018-06-13T22:50:49.766Z,4.60
2018-06-13T22:53:17.483Z,4.73
2018-06-13T22:55:46.674Z,4.83
2018-06-13T22:58:14.356Z,4.73
2018-06-13T23:00:58.303Z,4.90
2018-06-13T23:03:26.878Z,4.93
2018-06-13T23:05:54.914Z,5.50
2018-06-13T23:08:22.610Z,5.27
2018-06-13T23:10:50.326Z,6.27
2018-06-13T23:13:18.914Z,5.63
2018-06-13T23:15:46.688Z,6.87
2018-06-13T23:18:14.406Z,5.20
2018-06-13T23:20:42.146Z,5.37
2018-06-13T23:32:55.010Z,5.63
2018-06-13T23:35:23.387Z,5.43
2018-06-13T23:37:51.497Z,5.47
2018-06-13T23:40:19.174Z,4.77
2018-06-13T23:42:47.086Z,5.17
2018-06-13T23:45:16.232Z,5.37
2018-06-13T23:47:45.514Z,5.60
2018-06-13T23:50:13.586Z,6.83
2018-06-13T23:52:41.342Z,5.07
2018-06-13T23:55:09.067Z,5.63
2018-06-13T23:57:37.131Z,6.60
